Shoshoni, Wyoming
Current Conditions -  °F | °C
As of 11:35 PM on Friday 19 Dec 2014 (Local Time) from KTBX Reporting Station
Clear Clear  
Wind Chill: 16°   Ceiling: Unl
Heat Index: 28°   Visibility: NA
Dew Point: 18°   Wind: 17mph
Humidity: 64%   Direction: 180°S
Pressure: 30.02"   Gusts: 26mph
Location:  43.24°N, 108.11°W
Report Text: KTBX 200635Z AUTO 18015G23KT CLR M02/M08 A3002 RMK AO2 PWINO
Loading
Personal Weather Stations






























Interactive Weather Map New forecast layout! Learn more

10-Day Weather Forecast

Advertisements
Track Severe Weather on mobile